sensor_id;sensor_type;location;lat;lon;timestamp;pressure;altitude;pressure_sealevel;temperature;humidity
59110;BME280;44895;47.438;18.978;2022-08-11T00:01:59;100519.19;;;20.04;56.86
59110;BME280;44895;47.438;18.978;2022-08-11T00:05:16;100524.22;;;20.02;57.08
59110;BME280;44895;47.438;18.978;2022-08-11T00:08:22;100518.72;;;20.02;57.15
59110;BME280;44895;47.438;18.978;2022-08-11T00:11:42;100523.09;;;20.03;57.50
59110;BME280;44895;47.438;18.978;2022-08-11T00:14:56;100513.44;;;19.97;56.33
59110;BME280;44895;47.438;18.978;2022-08-11T00:18:01;100509.78;;;19.93;57.58
59110;BME280;44895;47.438;18.978;2022-08-11T00:21:06;100502.44;;;19.84;58.77
59110;BME280;44895;47.438;18.978;2022-08-11T00:24:10;100511.16;;;19.74;59.09
59110;BME280;44895;47.438;18.978;2022-08-11T00:27:14;100497.13;;;19.79;58.88
59110;BME280;44895;47.438;18.978;2022-08-11T00:30:18;100510.00;;;19.75;59.58
59110;BME280;44895;47.438;18.978;2022-08-11T00:33:30;100507.00;;;19.55;60.54
59110;BME280;44895;47.438;18.978;2022-08-11T00:36:42;100503.69;;;19.37;61.36
59110;BME280;44895;47.438;18.978;2022-08-11T00:39:50;100510.44;;;19.40;61.93
59110;BME280;44895;47.438;18.978;2022-08-11T00:43:00;100511.59;;;19.39;61.14
59110;BME280;44895;47.438;18.978;2022-08-11T00:49:44;100509.31;;;19.41;61.45
59110;BME280;44895;47.438;18.978;2022-08-11T00:59:53;100501.03;;;19.41;61.74
59110;BME280;44895;47.438;18.978;2022-08-11T01:03:17;100498.41;;;19.45;61.31
59110;BME280;44895;47.438;18.978;2022-08-11T01:06:45;100496.44;;;19.33;62.22
59110;BME280;44895;47.438;18.978;2022-08-11T01:13:30;100498.84;;;19.22;62.61
59110;BME280;44895;47.438;18.978;2022-08-11T01:30:06;100492.09;;;19.19;63.80
59110;BME280;44895;47.438;18.978;2022-08-11T01:34:02;100488.41;;;19.15;63.48
59110;BME280;44895;47.438;18.978;2022-08-11T01:48:04;100476.16;;;19.37;62.70
59110;BME280;44895;47.438;18.978;2022-08-11T01:51:26;100488.41;;;19.40;61.85
59110;BME280;44895;47.438;18.978;2022-08-11T02:04:58;100481.66;;;19.50;62.59
59110;BME280;44895;47.438;18.978;2022-08-11T02:11:22;100474.41;;;19.45;62.02
59110;BME280;44895;47.438;18.978;2022-08-11T02:14:42;100473.88;;;19.39;62.48
59110;BME280;44895;47.438;18.978;2022-08-11T02:21:17;100472.13;;;19.35;63.15
59110;BME280;44895;47.438;18.978;2022-08-11T02:25:08;100473.88;;;19.39;63.90
59110;BME280;44895;47.438;18.978;2022-08-11T02:28:27;100469.97;;;19.28;63.94
59110;BME280;44895;47.438;18.978;2022-08-11T02:35:29;100474.88;;;19.35;64.08
59110;BME280;44895;47.438;18.978;2022-08-11T02:38:54;100465.47;;;19.36;63.87
59110;BME280;44895;47.438;18.978;2022-08-11T02:42:15;100471.44;;;19.38;64.21
59110;BME280;44895;47.438;18.978;2022-08-11T02:48:49;100472.25;;;19.26;64.42
59110;BME280;44895;47.438;18.978;2022-08-11T02:53:18;100459.84;;;19.20;64.04
59110;BME280;44895;47.438;18.978;2022-08-11T02:56:20;100458.13;;;19.28;64.21
59110;BME280;44895;47.438;18.978;2022-08-11T02:59:50;100460.41;;;19.38;63.18
59110;BME280;44895;47.438;18.978;2022-08-11T03:03:17;100461.59;;;19.37;63.27
59110;BME280;44895;47.438;18.978;2022-08-11T03:06:33;100468.91;;;19.45;63.31
59110;BME280;44895;47.438;18.978;2022-08-11T03:09:47;100470.28;;;19.39;63.66
59110;BME280;44895;47.438;18.978;2022-08-11T03:13:20;100467.09;;;19.25;64.45
59110;BME280;44895;47.438;18.978;2022-08-11T03:20:41;100473.84;;;19.15;66.05
59110;BME280;44895;47.438;18.978;2022-08-11T03:24:04;100468.91;;;19.08;65.72
59110;BME280;44895;47.438;18.978;2022-08-11T03:34:09;100476.78;;;18.97;67.76
59110;BME280;44895;47.438;18.978;2022-08-11T03:37:34;100476.78;;;18.97;66.21
59110;BME280;44895;47.438;18.978;2022-08-11T03:41:04;100468.09;;;18.95;67.63
59110;BME280;44895;47.438;18.978;2022-08-11T03:51:44;100476.16;;;18.79;68.73
59110;BME280;44895;47.438;18.978;2022-08-11T03:55:09;100480.75;;;18.87;67.89
59110;BME280;44895;47.438;18.978;2022-08-11T04:08:39;100472.78;;;19.07;67.12
59110;BME280;44895;47.438;18.978;2022-08-11T04:15:43;100474.75;;;19.06;69.29
59110;BME280;44895;47.438;18.978;2022-08-11T04:44:34;100488.97;;;19.70;68.15
59110;BME280;44895;47.438;18.978;2022-08-11T04:52:18;100487.97;;;19.75;71.05
59110;BME280;44895;47.438;18.978;2022-08-11T04:56:01;100491.63;;;19.92;64.86
59110;BME280;44895;47.438;18.978;2022-08-11T05:13:50;100491.50;;;20.41;61.89
59110;BME280;44895;47.438;18.978;2022-08-11T05:17:21;100492.97;;;20.51;59.79
59110;BME280;44895;47.438;18.978;2022-08-11T05:20:48;100498.97;;;20.69;60.73
59110;BME280;44895;47.438;18.978;2022-08-11T05:28:05;100508.56;;;21.04;58.96
59110;BME280;44895;47.438;18.978;2022-08-11T05:31:36;100510.53;;;21.19;57.35
59110;BME280;44895;47.438;18.978;2022-08-11T05:35:02;100502.72;;;21.37;55.47
59110;BME280;44895;47.438;18.978;2022-08-11T05:38:21;100503.50;;;21.70;55.75
59110;BME280;44895;47.438;18.978;2022-08-11T05:41:46;100503.06;;;21.67;55.24
59110;BME280;44895;47.438;18.978;2022-08-11T05:45:14;100507.66;;;21.60;54.41
59110;BME280;44895;47.438;18.978;2022-08-11T05:48:38;100510.50;;;21.99;53.76
59110;BME280;44895;47.438;18.978;2022-08-11T05:52:02;100507.88;;;22.06;53.60
59110;BME280;44895;47.438;18.978;2022-08-11T05:55:24;100507.09;;;22.25;52.79
59110;BME280;44895;47.438;18.978;2022-08-11T05:58:51;100500.47;;;25.73;46.00
59110;BME280;44895;47.438;18.978;2022-08-11T06:02:01;100498.16;;;28.90;37.94
59110;BME280;44895;47.438;18.978;2022-08-11T06:05:05;100502.19;;;27.21;39.70
59110;BME280;44895;47.438;18.978;2022-08-11T06:08:11;100504.56;;;26.97;42.71
59110;BME280;44895;47.438;18.978;2022-08-11T06:11:15;100491.34;;;29.43;36.52
59110;BME280;44895;47.438;18.978;2022-08-11T06:14:21;100496.50;;;29.00;35.57
59110;BME280;44895;47.438;18.978;2022-08-11T06:17:28;100504.63;;;28.76;38.44
59110;BME280;44895;47.438;18.978;2022-08-11T06:20:45;100511.22;;;26.52;40.48
59110;BME280;44895;47.438;18.978;2022-08-11T06:23:49;100496.44;;;29.56;35.98
59110;BME280;44895;47.438;18.978;2022-08-11T06:26:54;100491.69;;;31.35;33.70
59110;BME280;44895;47.438;18.978;2022-08-11T06:29:59;100489.41;;;29.37;35.61
59110;BME280;44895;47.438;18.978;2022-08-11T06:33:34;100491.78;;;31.04;33.74
59110;BME280;44895;47.438;18.978;2022-08-11T06:36:49;100490.00;;;30.90;32.18
59110;BME280;44895;47.438;18.978;2022-08-11T06:40:06;100495.91;;;31.23;31.96
59110;BME280;44895;47.438;18.978;2022-08-11T06:46:30;100485.19;;;32.06;30.34
59110;BME280;44895;47.438;18.978;2022-08-11T06:49:45;100487.13;;;31.88;29.65
59110;BME280;44895;47.438;18.978;2022-08-11T06:53:09;100493.06;;;30.99;31.46
59110;BME280;44895;47.438;18.978;2022-08-11T06:56:15;100486.13;;;31.99;30.19
59110;BME280;44895;47.438;18.978;2022-08-11T06:59:47;100487.28;;;31.81;29.89
59110;BME280;44895;47.438;18.978;2022-08-11T07:03:11;100487.00;;;32.52;28.82
59110;BME280;44895;47.438;18.978;2022-08-11T07:10:07;100478.53;;;31.76;29.31
59110;BME280;44895;47.438;18.978;2022-08-11T07:13:37;100480.63;;;31.28;30.13
59110;BME280;44895;47.438;18.978;2022-08-11T07:16:59;100478.50;;;30.22;30.40
59110;BME280;44895;47.438;18.978;2022-08-11T07:20:04;100479.41;;;30.16;31.17
59110;BME280;44895;47.438;18.978;2022-08-11T07:23:28;100481.19;;;30.02;31.53
59110;BME280;44895;47.438;18.978;2022-08-11T07:26:53;100480.41;;;29.98;31.59
59110;BME280;44895;47.438;18.978;2022-08-11T07:30:16;100474.66;;;29.74;31.77
59110;BME280;44895;47.438;18.978;2022-08-11T07:33:28;100474.28;;;29.31;32.91
59110;BME280;44895;47.438;18.978;2022-08-11T07:36:38;100469.38;;;29.42;31.78
59110;BME280;44895;47.438;18.978;2022-08-11T07:39:44;100485.06;;;29.32;32.34
59110;BME280;44895;47.438;18.978;2022-08-11T07:42:49;100482.41;;;29.10;32.25
59110;BME280;44895;47.438;18.978;2022-08-11T07:45:54;100471.41;;;28.89;32.61
59110;BME280;44895;47.438;18.978;2022-08-11T07:49:16;100473.13;;;28.64;32.48
59110;BME280;44895;47.438;18.978;2022-08-11T07:52:39;100475.72;;;28.30;33.65
59110;BME280;44895;47.438;18.978;2022-08-11T07:55:43;100470.91;;;28.34;33.54
59110;BME280;44895;47.438;18.978;2022-08-11T07:58:47;100465.25;;;28.48;33.83
59110;BME280;44895;47.438;18.978;2022-08-11T08:02:11;100465.00;;;28.21;33.16
59110;BME280;44895;47.438;18.978;2022-08-11T08:05:34;100458.31;;;27.93;32.80
59110;BME280;44895;47.438;18.978;2022-08-11T08:08:58;100459.16;;;27.61;32.94
59110;BME280;44895;47.438;18.978;2022-08-11T08:12:22;100464.19;;;28.24;33.17
59110;BME280;44895;47.438;18.978;2022-08-11T08:15:45;100453.16;;;27.88;33.32
59110;BME280;44895;47.438;18.978;2022-08-11T08:19:11;100454.78;;;27.71;34.36
59110;BME280;44895;47.438;18.978;2022-08-11T08:22:17;100458.28;;;28.04;33.95
59110;BME280;44895;47.438;18.978;2022-08-11T08:25:25;100462.78;;;27.26;35.14
59110;BME280;44895;47.438;18.978;2022-08-11T08:28:31;100459.16;;;27.61;35.34
59110;BME280;44895;47.438;18.978;2022-08-11T08:31:35;100462.41;;;27.45;35.17
59110;BME280;44895;47.438;18.978;2022-08-11T08:34:39;100453.94;;;27.78;34.53
59110;BME280;44895;47.438;18.978;2022-08-11T08:37:44;100443.22;;;27.69;35.28
59110;BME280;44895;47.438;18.978;2022-08-11T08:40:51;100441.22;;;27.73;35.45
59110;BME280;44895;47.438;18.978;2022-08-11T08:44:04;100440.06;;;27.63;35.48
59110;BME280;44895;47.438;18.978;2022-08-11T08:47:15;100444.03;;;27.59;35.38
59110;BME280;44895;47.438;18.978;2022-08-11T08:50:21;100433.56;;;28.06;34.75
59110;BME280;44895;47.438;18.978;2022-08-11T08:53:29;100441.53;;;27.97;34.78
59110;BME280;44895;47.438;18.978;2022-08-11T08:56:38;100440.03;;;26.59;35.41
59110;BME280;44895;47.438;18.978;2022-08-11T08:59:44;100434.94;;;26.86;35.68
59110;BME280;44895;47.438;18.978;2022-08-11T09:02:50;100438.91;;;26.92;36.28
59110;BME280;44895;47.438;18.978;2022-08-11T09:05:55;100433.72;;;26.80;35.67
59110;BME280;44895;47.438;18.978;2022-08-11T09:08:59;100431.69;;;26.69;36.63
59110;BME280;44895;47.438;18.978;2022-08-11T09:12:03;100429.75;;;26.84;36.49
59110;BME280;44895;47.438;18.978;2022-08-11T09:15:08;100417.81;;;26.98;35.33
59110;BME280;44895;47.438;18.978;2022-08-11T09:18:16;100419.81;;;26.91;36.33
59110;BME280;44895;47.438;18.978;2022-08-11T09:21:20;100421.78;;;26.86;36.58
59110;BME280;44895;47.438;18.978;2022-08-11T09:24:25;100422.94;;;26.60;35.16
59110;BME280;44895;47.438;18.978;2022-08-11T09:27:47;100413.03;;;26.74;34.58
59110;BME280;44895;47.438;18.978;2022-08-11T09:30:51;100416.56;;;26.63;33.90
59110;BME280;44895;47.438;18.978;2022-08-11T09:33:56;100414.16;;;26.40;33.65
59110;BME280;44895;47.438;18.978;2022-08-11T09:37:02;100412.97;;;26.41;35.20
59110;BME280;44895;47.438;18.978;2022-08-11T09:40:25;100419.75;;;26.69;34.48
59110;BME280;44895;47.438;18.978;2022-08-11T09:43:35;100402.31;;;26.79;32.80
59110;BME280;44895;47.438;18.978;2022-08-11T09:46:59;100392.31;;;26.89;33.32
59110;BME280;44895;47.438;18.978;2022-08-11T09:50:05;100400.28;;;26.94;32.34
59110;BME280;44895;47.438;18.978;2022-08-11T09:53:11;100381.16;;;27.29;32.46
59110;BME280;44895;47.438;18.978;2022-08-11T09:56:21;100372.38;;;27.38;31.72
59110;BME280;44895;47.438;18.978;2022-08-11T09:59:44;100382.34;;;27.24;30.82
59110;BME280;44895;47.438;18.978;2022-08-11T10:02:49;100385.56;;;26.97;30.66
59110;BME280;44895;47.438;18.978;2022-08-11T10:06:03;100381.56;;;27.06;30.92
59110;BME280;44895;47.438;18.978;2022-08-11T10:09:25;100384.38;;;26.91;31.50
59110;BME280;44895;47.438;18.978;2022-08-11T10:12:33;100381.19;;;26.89;31.96
59110;BME280;44895;47.438;18.978;2022-08-11T10:15:41;100376.81;;;27.02;32.51
59110;BME280;44895;47.438;18.978;2022-08-11T10:18:49;100377.19;;;27.08;32.84
59110;BME280;44895;47.438;18.978;2022-08-11T10:21:55;100373.16;;;27.38;32.31
59110;BME280;44895;47.438;18.978;2022-08-11T10:25:19;100377.59;;;27.17;32.90
59110;BME280;44895;47.438;18.978;2022-08-11T10:28:41;100362.88;;;27.06;33.15
59110;BME280;44895;47.438;18.978;2022-08-11T10:31:45;100353.69;;;27.27;32.72
59110;BME280;44895;47.438;18.978;2022-08-11T10:35:07;100350.84;;;27.53;32.64
59110;BME280;44895;47.438;18.978;2022-08-11T10:38:15;100349.59;;;27.64;33.57
59110;BME280;44895;47.438;18.978;2022-08-11T10:41:19;100346.75;;;27.79;32.65
59110;BME280;44895;47.438;18.978;2022-08-11T10:44:46;100347.94;;;27.78;31.79
59110;BME280;44895;47.438;18.978;2022-08-11T10:47:54;100343.19;;;27.78;31.19
59110;BME280;44895;47.438;18.978;2022-08-11T10:50:58;100354.75;;;27.77;31.28
59110;BME280;44895;47.438;18.978;2022-08-11T10:54:17;100348.34;;;27.80;30.81
59110;BME280;44895;47.438;18.978;2022-08-11T10:57:42;100345.84;;;28.07;30.97
59110;BME280;44895;47.438;18.978;2022-08-11T11:01:05;100337.81;;;28.13;30.42
59110;BME280;44895;47.438;18.978;2022-08-11T11:04:14;100332.25;;;28.13;29.84
59110;BME280;44895;47.438;18.978;2022-08-11T11:07:22;100336.47;;;28.36;28.92
59110;BME280;44895;47.438;18.978;2022-08-11T11:10:27;100323.72;;;28.35;28.38
59110;BME280;44895;47.438;18.978;2022-08-11T11:13:33;100320.50;;;28.40;29.48
59110;BME280;44895;47.438;18.978;2022-08-11T11:16:57;100310.38;;;27.97;28.90
59110;BME280;44895;47.438;18.978;2022-08-11T11:27:31;100295.47;;;28.29;28.53
59110;BME280;44895;47.438;18.978;2022-08-11T11:37:22;100289.34;;;27.78;26.04
59110;BME280;44895;47.438;18.978;2022-08-11T11:40:26;100279.00;;;27.78;27.72
59110;BME280;44895;47.438;18.978;2022-08-11T11:43:32;100287.78;;;28.40;27.71
59110;BME280;44895;47.438;18.978;2022-08-11T11:46:37;100284.19;;;28.40;25.39
59110;BME280;44895;47.438;18.978;2022-08-11T11:49:42;100269.88;;;28.34;24.68
59110;BME280;44895;47.438;18.978;2022-08-11T11:52:47;100268.84;;;28.59;25.51
59110;BME280;44895;47.438;18.978;2022-08-11T11:55:52;100273.59;;;28.66;27.02
59110;BME280;44895;47.438;18.978;2022-08-11T11:58:56;100265.38;;;28.47;26.49
59110;BME280;44895;47.438;18.978;2022-08-11T12:02:19;100275.78;;;28.43;27.47
59110;BME280;44895;47.438;18.978;2022-08-11T12:05:23;100270.59;;;28.45;27.73
59110;BME280;44895;47.438;18.978;2022-08-11T12:08:28;100257.25;;;28.19;28.32
59110;BME280;44895;47.438;18.978;2022-08-11T12:11:32;100248.50;;;28.13;27.91
59110;BME280;44895;47.438;18.978;2022-08-11T12:14:54;100239.50;;;28.40;28.93
59110;BME280;44895;47.438;18.978;2022-08-11T12:17:59;100249.44;;;28.48;28.41
59110;BME280;44895;47.438;18.978;2022-08-11T12:21:04;100243.44;;;28.46;28.78
59110;BME280;44895;47.438;18.978;2022-08-11T12:24:09;100252.44;;;28.23;28.88
59110;BME280;44895;47.438;18.978;2022-08-11T12:27:31;100243.25;;;28.22;29.19
59110;BME280;44895;47.438;18.978;2022-08-11T12:30:36;100242.72;;;28.38;29.31
59110;BME280;44895;47.438;18.978;2022-08-11T12:33:43;100245.03;;;28.47;29.68
59110;BME280;44895;47.438;18.978;2022-08-11T12:36:51;100237.06;;;28.49;28.21
59110;BME280;44895;47.438;18.978;2022-08-11T12:40:00;100241.06;;;28.44;28.89
59110;BME280;44895;47.438;18.978;2022-08-11T12:43:26;100224.81;;;28.32;29.22
59110;BME280;44895;47.438;18.978;2022-08-11T12:46:52;100227.59;;;28.36;29.27
59110;BME280;44895;47.438;18.978;2022-08-11T12:49:56;100228.22;;;28.02;28.15
59110;BME280;44895;47.438;18.978;2022-08-11T12:53:23;100231.34;;;28.14;29.32
59110;BME280;44895;47.438;18.978;2022-08-11T12:56:38;100225.88;;;27.96;28.79
59110;BME280;44895;47.438;18.978;2022-08-11T13:00:04;100223.91;;;27.93;29.66
59110;BME280;44895;47.438;18.978;2022-08-11T13:03:26;100214.22;;;28.12;29.38
59110;BME280;44895;47.438;18.978;2022-08-11T13:06:50;100215.03;;;28.13;28.85
59110;BME280;44895;47.438;18.978;2022-08-11T13:09:55;100209.44;;;28.13;28.80
59110;BME280;44895;47.438;18.978;2022-08-11T13:13:00;100205.03;;;28.15;29.23
59110;BME280;44895;47.438;18.978;2022-08-11T13:16:04;100204.25;;;28.15;29.80
59110;BME280;44895;47.438;18.978;2022-08-11T13:19:08;100211.94;;;27.96;30.39
59110;BME280;44895;47.438;18.978;2022-08-11T13:22:15;100202.03;;;27.88;29.53
59110;BME280;44895;47.438;18.978;2022-08-11T13:25:22;100207.19;;;27.93;29.88
59110;BME280;44895;47.438;18.978;2022-08-11T13:28:27;100196.84;;;27.87;29.94
59110;BME280;44895;47.438;18.978;2022-08-11T13:31:32;100203.22;;;27.91;29.58
59110;BME280;44895;47.438;18.978;2022-08-11T13:34:35;100194.56;;;27.74;30.40
59110;BME280;44895;47.438;18.978;2022-08-11T13:37:45;100193.72;;;27.77;30.29
59110;BME280;44895;47.438;18.978;2022-08-11T13:40:51;100190.81;;;27.92;30.43
59110;BME280;44895;47.438;18.978;2022-08-11T13:43:57;100186.84;;;27.93;30.43
59110;BME280;44895;47.438;18.978;2022-08-11T13:47:03;100185.28;;;27.88;31.01
59110;BME280;44895;47.438;18.978;2022-08-11T13:50:08;100182.47;;;27.92;32.02
59110;BME280;44895;47.438;18.978;2022-08-11T13:53:16;100189.63;;;27.93;31.46
59110;BME280;44895;47.438;18.978;2022-08-11T13:56:23;100180.25;;;27.69;32.20
59110;BME280;44895;47.438;18.978;2022-08-11T13:59:29;100178.31;;;27.62;31.88
59110;BME280;44895;47.438;18.978;2022-08-11T14:02:35;100176.72;;;27.61;32.12
59110;BME280;44895;47.438;18.978;2022-08-11T14:05:47;100174.25;;;27.66;32.26
59110;BME280;44895;47.438;18.978;2022-08-11T14:08:51;100175.94;;;27.57;32.54
59110;BME280;44895;47.438;18.978;2022-08-11T14:12:00;100181.16;;;27.51;32.61
59110;BME280;44895;47.438;18.978;2022-08-11T14:15:27;100180.06;;;27.27;32.96
59110;BME280;44895;47.438;18.978;2022-08-11T14:18:33;100167.28;;;27.40;33.19
59110;BME280;44895;47.438;18.978;2022-08-11T14:21:42;100172.09;;;27.29;33.12
59110;BME280;44895;47.438;18.978;2022-08-11T14:25:04;100171.34;;;27.17;32.80
59110;BME280;44895;47.438;18.978;2022-08-11T14:28:08;100181.25;;;27.26;33.75
59110;BME280;44895;47.438;18.978;2022-08-11T14:31:13;100178.09;;;27.20;33.68
59110;BME280;44895;47.438;18.978;2022-08-11T14:34:19;100170.13;;;27.22;33.85
59110;BME280;44895;47.438;18.978;2022-08-11T14:37:25;100174.16;;;27.10;33.03
59110;BME280;44895;47.438;18.978;2022-08-11T14:40:30;100169.75;;;27.16;33.18
59110;BME280;44895;47.438;18.978;2022-08-11T14:43:54;100170.59;;;27.13;32.97
59110;BME280;44895;47.438;18.978;2022-08-11T14:47:17;100166.19;;;27.12;33.57
59110;BME280;44895;47.438;18.978;2022-08-11T14:50:28;100170.69;;;26.88;33.42
59110;BME280;44895;47.438;18.978;2022-08-11T14:53:32;100159.09;;;26.97;33.68
59110;BME280;44895;47.438;18.978;2022-08-11T14:56:36;100157.53;;;26.96;33.74
59110;BME280;44895;47.438;18.978;2022-08-11T14:59:42;100160.75;;;26.87;33.43
59110;BME280;44895;47.438;18.978;2022-08-11T15:02:47;100159.50;;;26.95;33.30
59110;BME280;44895;47.438;18.978;2022-08-11T15:06:12;100162.28;;;26.95;33.75
59110;BME280;44895;47.438;18.978;2022-08-11T15:09:16;100155.13;;;26.94;34.66
59110;BME280;44895;47.438;18.978;2022-08-11T15:12:21;100159.06;;;27.00;33.81
59110;BME280;44895;47.438;18.978;2022-08-11T15:15:25;100161.91;;;26.90;33.70
59110;BME280;44895;47.438;18.978;2022-08-11T15:18:47;100158.72;;;26.88;34.02
59110;BME280;44895;47.438;18.978;2022-08-11T15:21:51;100150.38;;;26.84;33.78
59110;BME280;44895;47.438;18.978;2022-08-11T15:25:13;100155.19;;;26.76;33.17
59110;BME280;44895;47.438;18.978;2022-08-11T15:28:19;100156.78;;;26.81;33.55
59110;BME280;44895;47.438;18.978;2022-08-11T15:31:43;100154.00;;;26.81;32.93
59110;BME280;44895;47.438;18.978;2022-08-11T15:35:05;100142.47;;;26.64;32.81
59110;BME280;44895;47.438;18.978;2022-08-11T15:38:28;100143.25;;;26.68;33.39
59110;BME280;44895;47.438;18.978;2022-08-11T15:41:50;100153.22;;;26.66;33.33
59110;BME280;44895;47.438;18.978;2022-08-11T15:45:16;100146.84;;;26.62;33.13
59110;BME280;44895;47.438;18.978;2022-08-11T15:48:54;100142.91;;;26.52;33.23
59110;BME280;44895;47.438;18.978;2022-08-11T15:55:06;100136.97;;;26.28;33.52
59110;BME280;44895;47.438;18.978;2022-08-11T15:58:11;100143.34;;;26.29;33.89
59110;BME280;44895;47.438;18.978;2022-08-11T16:01:36;100137.38;;;26.27;33.61
59110;BME280;44895;47.438;18.978;2022-08-11T16:04:59;100140.97;;;26.16;33.79
59110;BME280;44895;47.438;18.978;2022-08-11T16:08:04;100134.22;;;26.17;33.65
59110;BME280;44895;47.438;18.978;2022-08-11T16:11:09;100132.22;;;26.14;34.03
59110;BME280;44895;47.438;18.978;2022-08-11T16:14:15;100133.03;;;26.08;33.75
59110;BME280;44895;47.438;18.978;2022-08-11T16:17:44;100138.19;;;26.05;34.34
59110;BME280;44895;47.438;18.978;2022-08-11T16:20:50;100133.81;;;26.01;34.15
59110;BME280;44895;47.438;18.978;2022-08-11T16:23:59;100129.03;;;25.94;34.43
59110;BME280;44895;47.438;18.978;2022-08-11T16:27:05;100135.41;;;25.87;34.31
59110;BME280;44895;47.438;18.978;2022-08-11T16:30:09;100138.56;;;25.79;34.66
59110;BME280;44895;47.438;18.978;2022-08-11T16:33:14;100137.00;;;25.70;35.78
59110;BME280;44895;47.438;18.978;2022-08-11T16:36:19;100137.38;;;25.69;34.97
59110;BME280;44895;47.438;18.978;2022-08-11T16:39:42;100135.34;;;25.55;35.80
59110;BME280;44895;47.438;18.978;2022-08-11T16:42:48;100134.97;;;25.49;36.30
59110;BME280;44895;47.438;18.978;2022-08-11T16:46:14;100138.53;;;25.53;36.59
59110;BME280;44895;47.438;18.978;2022-08-11T16:49:46;100134.97;;;25.49;36.69
59110;BME280;44895;47.438;18.978;2022-08-11T16:52:53;100135.34;;;25.44;37.22
59110;BME280;44895;47.438;18.978;2022-08-11T16:55:58;100142.09;;;25.39;36.88
59110;BME280;44895;47.438;18.978;2022-08-11T16:59:08;100136.16;;;25.37;36.87
59110;BME280;44895;47.438;18.978;2022-08-11T17:02:18;100139.66;;;25.31;37.23
59110;BME280;44895;47.438;18.978;2022-08-11T17:05:43;100138.06;;;25.26;37.61
59110;BME280;44895;47.438;18.978;2022-08-11T17:09:08;100138.84;;;25.27;38.15
59110;BME280;44895;47.438;18.978;2022-08-11T17:12:33;100130.50;;;25.23;37.89
59110;BME280;44895;47.438;18.978;2022-08-11T17:15:59;100135.66;;;25.17;37.86
59110;BME280;44895;47.438;18.978;2022-08-11T17:19:27;100131.25;;;25.09;37.74
59110;BME280;44895;47.438;18.978;2022-08-11T17:22:36;100134.44;;;25.11;38.22
59110;BME280;44895;47.438;18.978;2022-08-11T17:25:59;100140.78;;;25.01;38.09
59110;BME280;44895;47.438;18.978;2022-08-11T17:29:03;100160.47;;;24.78;38.84
59110;BME280;44895;47.438;18.978;2022-08-11T17:32:14;100165.88;;;24.56;39.96
59110;BME280;44895;47.438;18.978;2022-08-11T17:35:39;100184.00;;;24.35;40.75
59110;BME280;44895;47.438;18.978;2022-08-11T17:38:46;100178.72;;;24.19;41.78
59110;BME280;44895;47.438;18.978;2022-08-11T17:41:50;100189.25;;;23.96;42.55
59110;BME280;44895;47.438;18.978;2022-08-11T17:45:14;100187.50;;;23.84;42.84
59110;BME280;44895;47.438;18.978;2022-08-11T17:48:41;100192.00;;;23.58;43.52
59110;BME280;44895;47.438;18.978;2022-08-11T17:51:46;100199.19;;;23.63;43.29
59110;BME280;44895;47.438;18.978;2022-08-11T17:55:09;100195.94;;;23.57;43.18
59110;BME280;44895;47.438;18.978;2022-08-11T17:58:33;100204.41;;;23.34;44.20
59110;BME280;44895;47.438;18.978;2022-08-11T18:01:58;100214.34;;;23.38;44.02
59110;BME280;44895;47.438;18.978;2022-08-11T18:05:25;100215.31;;;23.19;44.67
59110;BME280;44895;47.438;18.978;2022-08-11T18:08:32;100206.97;;;23.16;45.33
59110;BME280;44895;47.438;18.978;2022-08-11T18:11:55;100210.56;;;23.20;45.34
59110;BME280;44895;47.438;18.978;2022-08-11T18:15:18;100212.06;;;23.13;45.56
59110;BME280;44895;47.438;18.978;2022-08-11T18:18:40;100208.44;;;23.09;45.93
59110;BME280;44895;47.438;18.978;2022-08-11T18:22:07;100212.38;;;23.08;46.08
59110;BME280;44895;47.438;18.978;2022-08-11T18:25:31;100217.59;;;23.13;46.04
59110;BME280;44895;47.438;18.978;2022-08-11T18:28:56;100220.19;;;22.99;46.43
59110;BME280;44895;47.438;18.978;2022-08-11T18:32:20;100219.69;;;22.93;47.03
59110;BME280;44895;47.438;18.978;2022-08-11T18:35:46;100227.63;;;22.95;46.89
59110;BME280;44895;47.438;18.978;2022-08-11T18:39:12;100231.66;;;23.01;47.05
59110;BME280;44895;47.438;18.978;2022-08-11T18:42:36;100233.16;;;22.95;47.44
59110;BME280;44895;47.438;18.978;2022-08-11T18:46:03;100225.13;;;22.86;47.35
59110;BME280;44895;47.438;18.978;2022-08-11T18:49:29;100228.22;;;22.81;47.44
59110;BME280;44895;47.438;18.978;2022-08-11T18:52:53;100219.34;;;22.68;47.83
59110;BME280;44895;47.438;18.978;2022-08-11T18:56:18;100227.06;;;22.55;48.05
59110;BME280;44895;47.438;18.978;2022-08-11T18:59:41;100228.03;;;22.67;48.09
59110;BME280;44895;47.438;18.978;2022-08-11T19:03:05;100241.03;;;22.62;48.39
59110;BME280;44895;47.438;18.978;2022-08-11T19:06:30;100234.53;;;22.55;48.19
59110;BME280;44895;47.438;18.978;2022-08-11T19:09:54;100239.94;;;22.44;48.49
59110;BME280;44895;47.438;18.978;2022-08-11T19:13:17;100239.69;;;22.53;48.87
59110;BME280;44895;47.438;18.978;2022-08-11T19:16:41;100233.31;;;22.52;48.18
59110;BME280;44895;47.438;18.978;2022-08-11T19:20:11;100233.09;;;22.38;48.37
59110;BME280;44895;47.438;18.978;2022-08-11T19:23:36;100226.69;;;22.34;49.40
59110;BME280;44895;47.438;18.978;2022-08-11T19:26:59;100234.63;;;22.35;49.42
59110;BME280;44895;47.438;18.978;2022-08-11T19:30:22;100225.03;;;22.29;49.18
59110;BME280;44895;47.438;18.978;2022-08-11T19:33:46;100222.63;;;22.27;48.72